sensor_id;sensor_type;location;lat;lon;timestamp;pressure;altitude;pressure_sealevel;temperature;humidity
8160;BME280;27404;52.398;9.646;2023-04-29T00:00:21;100286.47;;;11.15;100.00
8160;BME280;27404;52.398;9.646;2023-04-29T00:02:47;100294.16;;;11.18;100.00
8160;BME280;27404;52.398;9.646;2023-04-29T00:05:12;100294.09;;;11.13;100.00
8160;BME280;27404;52.398;9.646;2023-04-29T00:07:38;100297.00;;;11.06;100.00
8160;BME280;27404;52.398;9.646;2023-04-29T00:10:03;100305.53;;;11.10;100.00
8160;BME280;27404;52.398;9.646;2023-04-29T00:12:29;100297.56;;;11.08;100.00
8160;BME280;27404;52.398;9.646;2023-04-29T00:14:56;100290.09;;;11.04;100.00
8160;BME280;27404;52.398;9.646;2023-04-29T00:17:21;100292.41;;;10.95;100.00
8160;BME280;27404;52.398;9.646;2023-04-29T00:19:47;100297.41;;;10.98;100.00
8160;BME280;27404;52.398;9.646;2023-04-29T00:22:12;100306.91;;;10.95;100.00
8160;BME280;27404;52.398;9.646;2023-04-29T00:24:38;100295.06;;;10.90;100.00
8160;BME280;27404;52.398;9.646;2023-04-29T00:27:03;100304.91;;;10.91;100.00
8160;BME280;27404;52.398;9.646;2023-04-29T00:29:30;100305.81;;;10.96;100.00
8160;BME280;27404;52.398;9.646;2023-04-29T00:31:55;100308.41;;;10.86;100.00
8160;BME280;27404;52.398;9.646;2023-04-29T00:34:21;100309.13;;;10.81;100.00
8160;BME280;27404;52.398;9.646;2023-04-29T00:36:46;100305.69;;;10.86;100.00
8160;BME280;27404;52.398;9.646;2023-04-29T00:39:12;100304.59;;;10.87;100.00
8160;BME280;27404;52.398;9.646;2023-04-29T00:41:38;100312.44;;;10.84;100.00
8160;BME280;27404;52.398;9.646;2023-04-29T00:44:03;100308.72;;;10.90;100.00
8160;BME280;27404;52.398;9.646;2023-04-29T00:46:29;100313.44;;;10.94;100.00
8160;BME280;27404;52.398;9.646;2023-04-29T00:48:54;100316.34;;;10.88;100.00
8160;BME280;27404;52.398;9.646;2023-04-29T00:51:20;100315.44;;;10.82;100.00
8160;BME280;27404;52.398;9.646;2023-04-29T00:53:46;100330.19;;;10.81;100.00
8160;BME280;27404;52.398;9.646;2023-04-29T00:56:12;100332.44;;;10.84;100.00
8160;BME280;27404;52.398;9.646;2023-04-29T00:58:39;100338.63;;;10.79;100.00
8160;BME280;27404;52.398;9.646;2023-04-29T01:01:05;100337.44;;;10.75;100.00
8160;BME280;27404;52.398;9.646;2023-04-29T01:03:32;100337.72;;;10.74;100.00
8160;BME280;27404;52.398;9.646;2023-04-29T01:11:41;100347.94;;;10.66;100.00
8160;BME280;27404;52.398;9.646;2023-04-29T01:14:13;100346.44;;;10.59;100.00
8160;BME280;27404;52.398;9.646;2023-04-29T01:17:00;100351.06;;;10.58;100.00
8160;BME280;27404;52.398;9.646;2023-04-29T01:19:51;100355.34;;;10.54;100.00
8160;BME280;27404;52.398;9.646;2023-04-29T01:22:19;100359.16;;;10.53;100.00
8160;BME280;27404;52.398;9.646;2023-04-29T01:24:46;100354.91;;;10.45;100.00
8160;BME280;27404;52.398;9.646;2023-04-29T01:27:28;100356.22;;;10.43;100.00
8160;BME280;27404;52.398;9.646;2023-04-29T01:30:29;100353.25;;;10.44;100.00
8160;BME280;27404;52.398;9.646;2023-04-29T01:33:13;100361.53;;;10.37;100.00
8160;BME280;27404;52.398;9.646;2023-04-29T01:35:54;100365.22;;;10.31;100.00
8160;BME280;27404;52.398;9.646;2023-04-29T01:41:18;100365.50;;;10.30;100.00
8160;BME280;27404;52.398;9.646;2023-04-29T01:43:50;100373.09;;;10.28;100.00
8160;BME280;27404;52.398;9.646;2023-04-29T01:46:17;100377.38;;;10.23;100.00
8160;BME280;27404;52.398;9.646;2023-04-29T01:48:44;100380.09;;;10.23;100.00
8160;BME280;27404;52.398;9.646;2023-04-29T01:51:09;100379.28;;;10.23;100.00
8160;BME280;27404;52.398;9.646;2023-04-29T01:53:35;100382.63;;;10.25;100.00
8160;BME280;27404;52.398;9.646;2023-04-29T01:56:01;100388.78;;;10.20;100.00
8160;BME280;27404;52.398;9.646;2023-04-29T01:58:26;100394.94;;;10.28;100.00
8160;BME280;27404;52.398;9.646;2023-04-29T02:00:53;100400.06;;;10.24;100.00
8160;BME280;27404;52.398;9.646;2023-04-29T02:03:19;100401.63;;;10.20;100.00
8160;BME280;27404;52.398;9.646;2023-04-29T02:05:44;100400.31;;;10.22;100.00
8160;BME280;27404;52.398;9.646;2023-04-29T02:08:10;100399.13;;;10.18;100.00
8160;BME280;27404;52.398;9.646;2023-04-29T02:10:35;100411.94;;;10.18;100.00
8160;BME280;27404;52.398;9.646;2023-04-29T02:13:01;100409.22;;;10.18;100.00
8160;BME280;27404;52.398;9.646;2023-04-29T02:15:27;100420.16;;;10.18;100.00
8160;BME280;27404;52.398;9.646;2023-04-29T02:17:53;100415.75;;;10.17;100.00
8160;BME280;27404;52.398;9.646;2023-04-29T02:20:19;100417.78;;;10.10;100.00
8160;BME280;27404;52.398;9.646;2023-04-29T02:22:45;100428.56;;;10.16;100.00
8160;BME280;27404;52.398;9.646;2023-04-29T02:25:10;100444.84;;;10.11;100.00
8160;BME280;27404;52.398;9.646;2023-04-29T02:27:36;100443.66;;;10.07;100.00
8160;BME280;27404;52.398;9.646;2023-04-29T02:30:02;100445.19;;;10.03;100.00
8160;BME280;27404;52.398;9.646;2023-04-29T02:32:29;100446.63;;;9.93;100.00
8160;BME280;27404;52.398;9.646;2023-04-29T02:34:55;100446.25;;;9.90;100.00
8160;BME280;27404;52.398;9.646;2023-04-29T02:37:20;100452.31;;;9.80;100.00
8160;BME280;27404;52.398;9.646;2023-04-29T02:39:46;100457.16;;;9.78;100.00
8160;BME280;27404;52.398;9.646;2023-04-29T02:42:12;100460.25;;;9.82;100.00
8160;BME280;27404;52.398;9.646;2023-04-29T02:44:37;100462.13;;;9.69;100.00
8160;BME280;27404;52.398;9.646;2023-04-29T02:47:03;100461.63;;;9.60;100.00
8160;BME280;27404;52.398;9.646;2023-04-29T02:49:29;100460.31;;;9.63;100.00
8160;BME280;27404;52.398;9.646;2023-04-29T02:51:54;100461.03;;;9.58;100.00
8160;BME280;27404;52.398;9.646;2023-04-29T02:54:20;100470.63;;;9.61;100.00
8160;BME280;27404;52.398;9.646;2023-04-29T02:56:45;100468.63;;;9.56;100.00
8160;BME280;27404;52.398;9.646;2023-04-29T02:59:11;100472.66;;;9.54;100.00
8160;BME280;27404;52.398;9.646;2023-04-29T03:01:36;100478.81;;;9.49;100.00
8160;BME280;27404;52.398;9.646;2023-04-29T03:04:03;100482.38;;;9.50;100.00
8160;BME280;27404;52.398;9.646;2023-04-29T03:06:29;100479.03;;;9.47;100.00
8160;BME280;27404;52.398;9.646;2023-04-29T03:08:55;100482.00;;;9.46;100.00
8160;BME280;27404;52.398;9.646;2023-04-29T03:11:21;100487.84;;;9.50;100.00
8160;BME280;27404;52.398;9.646;2023-04-29T03:13:49;100489.13;;;9.47;100.00
8160;BME280;27404;52.398;9.646;2023-04-29T03:16:14;100492.56;;;9.42;100.00
8160;BME280;27404;52.398;9.646;2023-04-29T03:18:43;100484.69;;;9.34;100.00
8160;BME280;27404;52.398;9.646;2023-04-29T03:21:09;100491.81;;;9.35;100.00
8160;BME280;27404;52.398;9.646;2023-04-29T03:23:35;100492.47;;;9.30;100.00
8160;BME280;27404;52.398;9.646;2023-04-29T03:26:00;100498.53;;;9.32;100.00
8160;BME280;27404;52.398;9.646;2023-04-29T03:28:26;100496.53;;;9.28;100.00
8160;BME280;27404;52.398;9.646;2023-04-29T03:30:52;100501.63;;;9.24;100.00
8160;BME280;27404;52.398;9.646;2023-04-29T03:33:17;100497.16;;;9.11;100.00
8160;BME280;27404;52.398;9.646;2023-04-29T03:35:43;100505.03;;;9.19;100.00
8160;BME280;27404;52.398;9.646;2023-04-29T03:38:10;100505.88;;;9.20;100.00
8160;BME280;27404;52.398;9.646;2023-04-29T03:40:36;100514.56;;;9.10;100.00
8160;BME280;27404;52.398;9.646;2023-04-29T03:43:01;100511.69;;;9.05;100.00
8160;BME280;27404;52.398;9.646;2023-04-29T03:45:27;100513.06;;;8.96;100.00
8160;BME280;27404;52.398;9.646;2023-04-29T03:47:53;100510.81;;;8.93;100.00
8160;BME280;27404;52.398;9.646;2023-04-29T03:50:19;100521.94;;;8.91;100.00
8160;BME280;27404;52.398;9.646;2023-04-29T03:52:44;100519.00;;;8.93;100.00
8160;BME280;27404;52.398;9.646;2023-04-29T03:55:09;100528.13;;;8.80;100.00
8160;BME280;27404;52.398;9.646;2023-04-29T03:57:36;100526.25;;;8.80;100.00
8160;BME280;27404;52.398;9.646;2023-04-29T04:00:03;100529.97;;;8.86;100.00
8160;BME280;27404;52.398;9.646;2023-04-29T04:02:29;100529.81;;;8.81;100.00
8160;BME280;27404;52.398;9.646;2023-04-29T04:04:54;100532.53;;;8.81;100.00
8160;BME280;27404;52.398;9.646;2023-04-29T04:07:20;100542.31;;;8.88;100.00
8160;BME280;27404;52.398;9.646;2023-04-29T04:09:45;100544.03;;;8.83;100.00
8160;BME280;27404;52.398;9.646;2023-04-29T04:12:11;100543.69;;;8.79;100.00
8160;BME280;27404;52.398;9.646;2023-04-29T04:14:36;100552.47;;;8.81;100.00
8160;BME280;27404;52.398;9.646;2023-04-29T04:17:01;100548.88;;;8.81;100.00
8160;BME280;27404;52.398;9.646;2023-04-29T04:19:29;100551.63;;;8.81;100.00
8160;BME280;27404;52.398;9.646;2023-04-29T04:21:55;100566.28;;;8.80;100.00
8160;BME280;27404;52.398;9.646;2023-04-29T04:24:20;100566.09;;;8.81;100.00
8160;BME280;27404;52.398;9.646;2023-04-29T04:26:46;100564.03;;;8.77;100.00
8160;BME280;27404;52.398;9.646;2023-04-29T04:29:11;100577.00;;;8.81;100.00
8160;BME280;27404;52.398;9.646;2023-04-29T04:31:37;100582.13;;;8.71;100.00
8160;BME280;27404;52.398;9.646;2023-04-29T04:34:02;100587.28;;;8.79;100.00
8160;BME280;27404;52.398;9.646;2023-04-29T04:36:27;100581.59;;;8.81;100.00
8160;BME280;27404;52.398;9.646;2023-04-29T04:38:53;100593.34;;;8.81;100.00
8160;BME280;27404;52.398;9.646;2023-04-29T04:41:18;100600.63;;;8.87;100.00
8160;BME280;27404;52.398;9.646;2023-04-29T04:43:44;100592.28;;;8.82;100.00
8160;BME280;27404;52.398;9.646;2023-04-29T04:46:13;100604.63;;;8.85;100.00
8160;BME280;27404;52.398;9.646;2023-04-29T04:48:39;100607.34;;;8.85;100.00
8160;BME280;27404;52.398;9.646;2023-04-29T04:51:09;100610.16;;;8.78;100.00
8160;BME280;27404;52.398;9.646;2023-04-29T04:53:34;100608.53;;;8.70;100.00
8160;BME280;27404;52.398;9.646;2023-04-29T04:56:00;100623.44;;;8.68;100.00
8160;BME280;27404;52.398;9.646;2023-04-29T04:58:26;100625.41;;;8.61;100.00
8160;BME280;27404;52.398;9.646;2023-04-29T05:00:51;100625.75;;;8.64;100.00
8160;BME280;27404;52.398;9.646;2023-04-29T05:03:17;100630.16;;;8.65;100.00
8160;BME280;27404;52.398;9.646;2023-04-29T05:05:42;100628.50;;;8.64;100.00
8160;BME280;27404;52.398;9.646;2023-04-29T05:08:08;100637.59;;;8.58;100.00
8160;BME280;27404;52.398;9.646;2023-04-29T05:10:36;100635.25;;;8.62;100.00
8160;BME280;27404;52.398;9.646;2023-04-29T05:13:02;100639.63;;;8.63;100.00
8160;BME280;27404;52.398;9.646;2023-04-29T05:15:27;100642.34;;;8.63;100.00
8160;BME280;27404;52.398;9.646;2023-04-29T05:17:53;100647.44;;;8.59;100.00
8160;BME280;27404;52.398;9.646;2023-04-29T05:20:19;100653.50;;;8.61;100.00
8160;BME280;27404;52.398;9.646;2023-04-29T05:22:45;100663.97;;;8.57;100.00
8160;BME280;27404;52.398;9.646;2023-04-29T05:25:11;100656.25;;;8.54;100.00
8160;BME280;27404;52.398;9.646;2023-04-29T05:27:36;100656.41;;;8.59;100.00
8160;BME280;27404;52.398;9.646;2023-04-29T05:30:02;100656.66;;;8.58;100.00
8160;BME280;27404;52.398;9.646;2023-04-29T05:32:28;100660.28;;;8.52;100.00
8160;BME280;27404;52.398;9.646;2023-04-29T05:34:53;100676.78;;;8.57;100.00
8160;BME280;27404;52.398;9.646;2023-04-29T05:37:18;100678.66;;;8.56;100.00
8160;BME280;27404;52.398;9.646;2023-04-29T05:39:44;100676.00;;;8.50;100.00
8160;BME280;27404;52.398;9.646;2023-04-29T05:42:09;100683.28;;;8.56;100.00
8160;BME280;27404;52.398;9.646;2023-04-29T05:44:35;100686.78;;;8.63;100.00
8160;BME280;27404;52.398;9.646;2023-04-29T05:47:00;100689.72;;;8.62;100.00
8160;BME280;27404;52.398;9.646;2023-04-29T05:49:26;100695.19;;;8.62;100.00
8160;BME280;27404;52.398;9.646;2023-04-29T05:51:51;100697.28;;;8.59;100.00
8160;BME280;27404;52.398;9.646;2023-04-29T05:54:17;100696.91;;;8.56;100.00
8160;BME280;27404;52.398;9.646;2023-04-29T05:56:42;100692.97;;;8.52;100.00
8160;BME280;27404;52.398;9.646;2023-04-29T05:59:08;100701.97;;;8.52;100.00
8160;BME280;27404;52.398;9.646;2023-04-29T06:01:33;100699.41;;;8.57;100.00
8160;BME280;27404;52.398;9.646;2023-04-29T06:03:59;100709.50;;;8.57;100.00
8160;BME280;27404;52.398;9.646;2023-04-29T06:06:24;100711.91;;;8.65;100.00
8160;BME280;27404;52.398;9.646;2023-04-29T06:08:50;100714.25;;;8.62;100.00
8160;BME280;27404;52.398;9.646;2023-04-29T06:11:15;100713.66;;;8.59;100.00
8160;BME280;27404;52.398;9.646;2023-04-29T06:13:41;100707.03;;;8.74;100.00
8160;BME280;27404;52.398;9.646;2023-04-29T06:16:06;100723.69;;;8.91;100.00
8160;BME280;27404;52.398;9.646;2023-04-29T06:18:33;100722.09;;;9.02;100.00
8160;BME280;27404;52.398;9.646;2023-04-29T06:20:58;100723.81;;;9.22;100.00
8160;BME280;27404;52.398;9.646;2023-04-29T06:23:23;100726.84;;;9.13;100.00
8160;BME280;27404;52.398;9.646;2023-04-29T06:25:50;100729.53;;;9.20;100.00
8160;BME280;27404;52.398;9.646;2023-04-29T06:28:15;100739.53;;;9.26;100.00
8160;BME280;27404;52.398;9.646;2023-04-29T06:30:41;100737.09;;;9.37;100.00
8160;BME280;27404;52.398;9.646;2023-04-29T06:33:06;100732.25;;;9.39;100.00
8160;BME280;27404;52.398;9.646;2023-04-29T06:35:32;100738.31;;;9.22;100.00
8160;BME280;27404;52.398;9.646;2023-04-29T06:37:57;100749.38;;;9.27;100.00
8160;BME280;27404;52.398;9.646;2023-04-29T06:40:23;100753.38;;;9.25;100.00
8160;BME280;27404;52.398;9.646;2023-04-29T06:42:48;100747.72;;;9.26;100.00
8160;BME280;27404;52.398;9.646;2023-04-29T06:45:14;100755.59;;;9.34;100.00
8160;BME280;27404;52.398;9.646;2023-04-29T06:47:40;100763.22;;;9.26;100.00
8160;BME280;27404;52.398;9.646;2023-04-29T06:50:05;100766.28;;;9.36;100.00
8160;BME280;27404;52.398;9.646;2023-04-29T06:52:31;100774.69;;;9.60;100.00
8160;BME280;27404;52.398;9.646;2023-04-29T06:54:57;100776.03;;;9.69;100.00
8160;BME280;27404;52.398;9.646;2023-04-29T06:57:23;100778.84;;;9.81;100.00
8160;BME280;27404;52.398;9.646;2023-04-29T06:59:48;100772.53;;;10.18;100.00
8160;BME280;27404;52.398;9.646;2023-04-29T07:02:13;100783.78;;;10.89;100.00
8160;BME280;27404;52.398;9.646;2023-04-29T07:04:39;100785.94;;;10.99;100.00
8160;BME280;27404;52.398;9.646;2023-04-29T07:07:05;100788.81;;;11.76;100.00
8160;BME280;27404;52.398;9.646;2023-04-29T07:09:31;100797.41;;;12.32;100.00
8160;BME280;27404;52.398;9.646;2023-04-29T07:11:56;100795.22;;;11.81;100.00
8160;BME280;27404;52.398;9.646;2023-04-29T07:14:22;100807.16;;;11.63;100.00
8160;BME280;27404;52.398;9.646;2023-04-29T07:16:52;100804.88;;;11.60;100.00
8160;BME280;27404;52.398;9.646;2023-04-29T07:19:18;100808.06;;;12.05;100.00
8160;BME280;27404;52.398;9.646;2023-04-29T07:21:44;100816.94;;;12.36;100.00
8160;BME280;27404;52.398;9.646;2023-04-29T07:24:09;100830.13;;;12.10;100.00
8160;BME280;27404;52.398;9.646;2023-04-29T07:26:35;100828.94;;;12.06;100.00
8160;BME280;27404;52.398;9.646;2023-04-29T07:29:00;100825.25;;;11.88;100.00
8160;BME280;27404;52.398;9.646;2023-04-29T07:31:26;100829.81;;;12.35;100.00
8160;BME280;27404;52.398;9.646;2023-04-29T07:33:52;100835.13;;;12.83;100.00
8160;BME280;27404;52.398;9.646;2023-04-29T07:36:19;100836.50;;;12.27;100.00
8160;BME280;27404;52.398;9.646;2023-04-29T07:38:45;100848.09;;;12.06;100.00
8160;BME280;27404;52.398;9.646;2023-04-29T07:41:10;100853.94;;;12.62;100.00
8160;BME280;27404;52.398;9.646;2023-04-29T07:43:36;100855.13;;;12.66;100.00
8160;BME280;27404;52.398;9.646;2023-04-29T07:46:01;100865.41;;;12.88;100.00
8160;BME280;27404;52.398;9.646;2023-04-29T07:48:26;100858.19;;;12.70;100.00
8160;BME280;27404;52.398;9.646;2023-04-29T07:50:52;100866.13;;;13.29;100.00
8160;BME280;27404;52.398;9.646;2023-04-29T07:53:17;100865.66;;;13.03;100.00
8160;BME280;27404;52.398;9.646;2023-04-29T07:55:43;100876.78;;;12.80;100.00
8160;BME280;27404;52.398;9.646;2023-04-29T07:58:09;100873.06;;;12.86;100.00
8160;BME280;27404;52.398;9.646;2023-04-29T08:00:34;100877.88;;;12.96;100.00
8160;BME280;27404;52.398;9.646;2023-04-29T08:03:00;100876.63;;;12.57;100.00
8160;BME280;27404;52.398;9.646;2023-04-29T08:05:25;100880.00;;;12.77;100.00
8160;BME280;27404;52.398;9.646;2023-04-29T08:07:51;100878.00;;;13.01;100.00
8160;BME280;27404;52.398;9.646;2023-04-29T08:10:17;100885.34;;;13.29;100.00
8160;BME280;27404;52.398;9.646;2023-04-29T08:12:47;100893.22;;;13.55;100.00
8160;BME280;27404;52.398;9.646;2023-04-29T08:15:13;100894.75;;;13.33;100.00
8160;BME280;27404;52.398;9.646;2023-04-29T08:17:38;100891.50;;;13.20;100.00
8160;BME280;27404;52.398;9.646;2023-04-29T08:20:04;100893.53;;;13.41;100.00
8160;BME280;27404;52.398;9.646;2023-04-29T08:22:31;100897.44;;;13.62;100.00
8160;BME280;27404;52.398;9.646;2023-04-29T08:24:57;100896.50;;;14.08;100.00
8160;BME280;27404;52.398;9.646;2023-04-29T08:27:23;100893.66;;;14.42;100.00
8160;BME280;27404;52.398;9.646;2023-04-29T08:29:48;100906.38;;;14.26;100.00
8160;BME280;27404;52.398;9.646;2023-04-29T08:32:14;100907.06;;;14.78;100.00
8160;BME280;27404;52.398;9.646;2023-04-29T08:34:39;100910.84;;;14.99;100.00
8160;BME280;27404;52.398;9.646;2023-04-29T08:37:06;100907.84;;;14.73;100.00
8160;BME280;27404;52.398;9.646;2023-04-29T08:39:31;100913.31;;;14.95;100.00
8160;BME280;27404;52.398;9.646;2023-04-29T08:41:57;100915.88;;;14.58;100.00
8160;BME280;27404;52.398;9.646;2023-04-29T08:44:26;100922.09;;;14.31;100.00
8160;BME280;27404;52.398;9.646;2023-04-29T08:46:52;100925.03;;;13.85;100.00
8160;BME280;27404;52.398;9.646;2023-04-29T08:49:17;100927.59;;;13.74;100.00
8160;BME280;27404;52.398;9.646;2023-04-29T08:51:43;100928.38;;;13.24;100.00
8160;BME280;27404;52.398;9.646;2023-04-29T08:54:10;100929.09;;;12.90;100.00
8160;BME280;27404;52.398;9.646;2023-04-29T08:56:35;100930.16;;;13.18;100.00
8160;BME280;27404;52.398;9.646;2023-04-29T08:59:01;100931.13;;;13.41;100.00
8160;BME280;27404;52.398;9.646;2023-04-29T09:01:29;100940.91;;;13.66;100.00
8160;BME280;27404;52.398;9.646;2023-04-29T09:04:36;100936.09;;;14.07;100.00
8160;BME280;27404;52.398;9.646;2023-04-29T09:07:06;100938.28;;;14.27;100.00
8160;BME280;27404;52.398;9.646;2023-04-29T09:09:32;100943.00;;;14.32;100.00
8160;BME280;27404;52.398;9.646;2023-04-29T09:11:58;100945.22;;;14.13;100.00
8160;BME280;27404;52.398;9.646;2023-04-29T09:14:24;100949.00;;;13.72;100.00
8160;BME280;27404;52.398;9.646;2023-04-29T09:16:50;100944.59;;;13.71;100.00
8160;BME280;27404;52.398;9.646;2023-04-29T09:19:32;100952.97;;;13.65;100.00
8160;BME280;27404;52.398;9.646;2023-04-29T09:21:58;100966.38;;;13.32;100.00
8160;BME280;27404;52.398;9.646;2023-04-29T09:24:28;100961.00;;;12.67;100.00
8160;BME280;27404;52.398;9.646;2023-04-29T09:26:55;100968.91;;;12.28;100.00
8160;BME280;27404;52.398;9.646;2023-04-29T09:29:21;100961.63;;;11.98;100.00
8160;BME280;27404;52.398;9.646;2023-04-29T09:31:47;100975.66;;;11.90;100.00
8160;BME280;27404;52.398;9.646;2023-04-29T09:34:13;100975.31;;;11.98;100.00
8160;BME280;27404;52.398;9.646;2023-04-29T09:36:46;100981.56;;;12.17;100.00
8160;BME280;27404;52.398;9.646;2023-04-29T09:39:17;100975.78;;;11.95;100.00
8160;BME280;27404;52.398;9.646;2023-04-29T09:44:15;100992.38;;;12.12;100.00
8160;BME280;27404;52.398;9.646;2023-04-29T09:46:41;100991.44;;;12.30;100.00
8160;BME280;27404;52.398;9.646;2023-04-29T09:49:26;100993.44;;;12.70;100.00
8160;BME280;27404;52.398;9.646;2023-04-29T09:52:02;101000.16;;;13.03;100.00
8160;BME280;27404;52.398;9.646;2023-04-29T09:54:32;100995.41;;;13.28;100.00
8160;BME280;27404;52.398;9.646;2023-04-29T09:56:59;101004.25;;;13.59;100.00
8160;BME280;27404;52.398;9.646;2023-04-29T09:59:26;101001.22;;;13.72;100.00
8160;BME280;27404;52.398;9.646;2023-04-29T10:01:53;100994.13;;;13.76;100.00
8160;BME280;27404;52.398;9.646;2023-04-29T10:04:21;101000.03;;;13.68;100.00
8160;BME280;27404;52.398;9.646;2023-04-29T10:06:51;100999.78;;;13.70;100.00
8160;BME280;27404;52.398;9.646;2023-04-29T10:09:18;101000.09;;;13.56;100.00
8160;BME280;27404;52.398;9.646;2023-04-29T10:11:45;101007.34;;;13.62;100.00
8160;BME280;27404;52.398;9.646;2023-04-29T10:14:13;101004.34;;;13.64;100.00
8160;BME280;27404;52.398;9.646;2023-04-29T10:16:53;101006.47;;;13.33;100.00
8160;BME280;27404;52.398;9.646;2023-04-29T10:19:25;101009.56;;;13.48;100.00
8160;BME280;27404;52.398;9.646;2023-04-29T10:21:57;101006.28;;;14.15;100.00
8160;BME280;27404;52.398;9.646;2023-04-29T10:24:25;101014.28;;;14.90;100.00
8160;BME280;27404;52.398;9.646;2023-04-29T10:26:52;101008.72;;;14.85;100.00
8160;BME280;27404;52.398;9.646;2023-04-29T10:29:21;101010.81;;;14.60;100.00
8160;BME280;27404;52.398;9.646;2023-04-29T10:31:47;100996.63;;;14.69;100.00
8160;BME280;27404;52.398;9.646;2023-04-29T10:34:15;101011.63;;;14.39;100.00
8160;BME280;27404;52.398;9.646;2023-04-29T10:36:41;101013.97;;;14.13;100.00
8160;BME280;27404;52.398;9.646;2023-04-29T10:39:15;101008.13;;;14.65;100.00
8160;BME280;27404;52.398;9.646;2023-04-29T10:41:46;101002.78;;;14.98;100.00
8160;BME280;27404;52.398;9.646;2023-04-29T10:44:14;101007.69;;;15.68;100.00
8160;BME280;27404;52.398;9.646;2023-04-29T10:46:40;101003.34;;;15.45;98.99
8160;BME280;27404;52.398;9.646;2023-04-29T10:49:06;101007.31;;;15.59;98.71
8160;BME280;27404;52.398;9.646;2023-04-29T10:54:12;101014.59;;;14.71;100.00
8160;BME280;27404;52.398;9.646;2023-04-29T10:56:47;101012.13;;;14.75;100.00
8160;BME280;27404;52.398;9.646;2023-04-29T10:59:16;101005.88;;;14.62;100.00
8160;BME280;27404;52.398;9.646;2023-04-29T11:01:48;101013.44;;;14.33;100.00
8160;BME280;27404;52.398;9.646;2023-04-29T11:04:14;101017.19;;;14.27;100.00
8160;BME280;27404;52.398;9.646;2023-04-29T11:06:43;101009.25;;;14.47;100.00
8160;BME280;27404;52.398;9.646;2023-04-29T11:09:10;101011.91;;;14.76;100.00
8160;BME280;27404;52.398;9.646;2023-04-29T11:12:00;101011.38;;;15.24;99.02
8160;BME280;27404;52.398;9.646;2023-04-29T11:14:40;101010.56;;;15.51;96.79
8160;BME280;27404;52.398;9.646;2023-04-29T11:17:13;101012.53;;;15.55;93.81
8160;BME280;27404;52.398;9.646;2023-04-29T11:19:45;101004.19;;;15.23;92.06
8160;BME280;27404;52.398;9.646;2023-04-29T11:24:56;101006.84;;;15.67;89.67
8160;BME280;27404;52.398;9.646;2023-04-29T11:27:24;101009.66;;;16.00;88.68
8160;BME280;27404;52.398;9.646;2023-04-29T11:29:51;101009.97;;;16.04;86.37
8160;BME280;27404;52.398;9.646;2023-04-29T11:32:20;101013.16;;;15.63;86.71
8160;BME280;27404;52.398;9.646;2023-04-29T11:34:47;101017.63;;;15.42;89.30
8160;BME280;27404;52.398;9.646;2023-04-29T11:37:18;101017.69;;;15.24;88.82
8160;BME280;27404;52.398;9.646;2023-04-29T11:39:44;101019.84;;;15.17;87.21
8160;BME280;27404;52.398;9.646;2023-04-29T11:42:09;101022.97;;;14.82;91.13
8160;BME280;27404;52.398;9.646;2023-04-29T11:44:35;101014.00;;;15.14;93.89
8160;BME280;27404;52.398;9.646;2023-04-29T11:47:10;101032.19;;;15.15;89.27
8160;BME280;27404;52.398;9.646;2023-04-29T11:49:36;101024.38;;;15.06;85.46
8160;BME280;27404;52.398;9.646;2023-04-29T11:52:02;101041.09;;;15.22;86.50
8160;BME280;27404;52.398;9.646;2023-04-29T11:54:29;101029.69;;;15.35;87.59
8160;BME280;27404;52.398;9.646;2023-04-29T11:56:56;101031.81;;;15.83;86.61
8160;BME280;27404;52.398;9.646;2023-04-29T11:59:22;101039.34;;;15.88;86.72
8160;BME280;27404;52.398;9.646;2023-04-29T12:01:51;101044.97;;;16.03;81.05
8160;BME280;27404;52.398;9.646;2023-04-29T12:04:17;101046.75;;;15.60;84.13
8160;BME280;27404;52.398;9.646;2023-04-29T12:06:44;101043.13;;;15.54;82.79
8160;BME280;27404;52.398;9.646;2023-04-29T12:09:10;101052.97;;;15.22;86.59
8160;BME280;27404;52.398;9.646;2023-04-29T12:11:36;101053.88;;;15.55;83.46
8160;BME280;27404;52.398;9.646;2023-04-29T12:14:02;101048.66;;;15.59;79.91
8160;BME280;27404;52.398;9.646;2023-04-29T12:16:31;101049.97;;;15.79;79.24
8160;BME280;27404;52.398;9.646;2023-04-29T12:18:57;101042.09;;;15.88;78.97
8160;BME280;27404;52.398;9.646;2023-04-29T12:21:23;101042.03;;;15.55;80.54
8160;BME280;27404;52.398;9.646;2023-04-29T12:23:50;101039.09;;;15.39;85.97
8160;BME280;27404;52.398;9.646;2023-04-29T12:26:16;101046.53;;;15.17;88.52
8160;BME280;27404;52.398;9.646;2023-04-29T12:28:43;101051.31;;;15.49;91.50
8160;BME280;27404;52.398;9.646;2023-04-29T12:31:09;101061.81;;;15.30;90.92
8160;BME280;27404;52.398;9.646;2023-04-29T12:33:37;101061.97;;;15.18;91.49
8160;BME280;27404;52.398;9.646;2023-04-29T12:36:15;101064.22;;;15.21;92.08
8160;BME280;27404;52.398;9.646;2023-04-29T12:38:41;101061.19;;;15.00;93.44
8160;BME280;27404;52.398;9.646;2023-04-29T12:41:07;101058.91;;;15.14;93.11
8160;BME280;27404;52.398;9.646;2023-04-29T12:43:32;101061.63;;;14.92;93.43
8160;BME280;27404;52.398;9.646;2023-04-29T12:46:05;101068.16;;;14.69;91.32
8160;BME280;27404;52.398;9.646;2023-04-29T12:48:35;101057.97;;;14.86;90.15
8160;BME280;27404;52.398;9.646;2023-04-29T12:51:10;101051.38;;;14.87;89.64
8160;BME280;27404;52.398;9.646;2023-04-29T12:53:36;101051.00;;;14.78;89.86
8160;BME280;27404;52.398;9.646;2023-04-29T12:56:01;101050.44;;;14.99;91.97
8160;BME280;27404;52.398;9.646;2023-04-29T12:58:30;101063.94;;;15.00;91.55
8160;BME280;27404;52.398;9.646;2023-04-29T13:00:57;101053.41;;;15.14;89.11
8160;BME280;27404;52.398;9.646;2023-04-29T13:03:22;101056.97;;;15.15;88.78
8160;BME280;27404;52.398;9.646;2023-04-29T13:05:49;101051.59;;;15.03;88.88
8160;BME280;27404;52.398;9.646;2023-04-29T13:08:18;101052.84;;;14.95;89.33
8160;BME280;27404;52.398;9.646;2023-04-29T13:10:43;101060.75;;;15.08;88.67